Terminal Aerodrome Forecast
Issued by NWS Albany, NY

Current Version | Previous Version | Text Only | Print | Product List | Glossary On
Versions: 1 2 3 4 5 6 7 8 9 10 11 12 13 14 15 16
000
FTUS41 KALY 280857 AAA
TAFGFL
TAF AMD
KGFL 280857Z 2809/2906 36009KT P6SM SCT035
     FM281300 36011G22KT P6SM SCT045
     FM281900 36013G25KT P6SM SCT045 BKN070
     FM290000 32005KT P6SM BKN040=

USA.gov is the U.S. government's official web portal to all federal, state and local government web resources and services.